ヤクーツク の空港の天気 - METARとTAF

ヤクーツク空港 ( UEEE / YKS ) - ロシア ヤクーツク
飛行場実況気象(Metar)
観測時間03/29 06:00 +09 (03/28 21:00 UTC)
風向・風速西 2m/s
視程10km以上
天気現象
なし
気温-13℃
湿度78%
気圧1021hPa
METARUEEE 282100Z 26002MPS CAVOK M13/M16 Q1021 R23L/09//55 NOSIG RMK QFE757
過去の天気等 Google飛行場航空写真 Wunderground天気予報

過去48時間のMETAR

飛行場予報(TAF)
発表時間: 3/29 05:00 +09 (3/28 20:00 UTC)
予報対象時間: 29日6時 +09 ~ 30日12時 +09
風向・風速北西 3m/s 瞬間風速 8m/s
視程10km以上
全天の4割程度の積乱雲 雲底高度 910m
全天を覆う雲 雲底高度 2,130m
TAF UEEE 282000Z 2821/3003 31003G08MPS 9999 SCT030CB OVC070 2821/2903 0300 FZFG VV003